Thunder radar more information blitzortung!


Radar de pluja more information rain snow radar


Visita la nostra xarxa de llocs de meteo:

Template documentation
and downloads

And another site



No particular awareness of the weather is required.    There are no Weather-warnings

Pagina Historial Weather Underground text

Diari Resum Juliol 23, 2017 Unitats:  Mètric    Imperial   Tant
« Previous Dia
SegĂźent Dia »
Diari Setmana Mensual Anual Personalitzada
  Maxima: Minima: Media:
Temperatura: -17.8 °C -8.2 °C -4.8 °C
Punt de rosada: -17.8 °C -9.6 °C -8.1 °C
Humitat: Humidity % 50 % 71 %
Wind Speed: 0 km/h 0 km/h 10 km/h
RĂ fegues de vent: 0 km/h - -
Vent:- - SE
Pression baro: 0 hPa 34293.4 hPa -
Precipitacions: 134.62 mm    
Historical Graphs
 
 
Dades de taula per Juliol 23, 2017
Temps Temperatura Punt de rosada Pression baro Vent Wind Speed RĂ fegues de vent Humitat Rainfall Rate (Hourly)
-17.8 °C -17.8 °C 0 hPa Calm     Humidity % 0 mm
00:00 -5.3 °C -7.6 °C 34395 hPa NNE 2.6 km/h 2.6 km/h 77 % 0 mm
00:02 -4.3 °C -7.8 °C 34361.1 hPa WSW 3.1 km/h   68 % 0 mm
00:10 -5.3 °C -7.6 °C 34395 hPa Calm   5.1 km/h 77 % 0 mm
00:20 -5.3 °C -7.6 °C 34395 hPa Calm   2.6 km/h 77 % 0 mm
00:30 -5.3 °C -7.6 °C 34395 hPa NE 2.6 km/h 2.6 km/h 78 % 0 mm
00:40 -5.3 °C -7.6 °C 34395 hPa NE 2.6 km/h 7.7 km/h 78 % 0 mm
00:50 -5.3 °C -7.6 °C 34395 hPa NE 2.6 km/h 5.1 km/h 78 % 0 mm
01:00 -5.3 °C -7.6 °C 34395 hPa NE 5.1 km/h 7.7 km/h 78 % 0 mm
01:10 -5.3 °C -7.6 °C 34428.8 hPa NE 5.1 km/h 7.7 km/h 78 % 0 mm
01:20 -5.3 °C -7.4 °C 34428.8 hPa NE 2.6 km/h 5.1 km/h 79 % 0 mm
01:30 -5.3 °C -7.4 °C 34428.8 hPa NE 5.1 km/h 7.7 km/h 79 % 0 mm
01:40 -5.3 °C -7.4 °C 34428.8 hPa NNE 7.7 km/h 10.3 km/h 79 % 0 mm
01:50 -5.3 °C -7.4 °C 34428.8 hPa NNE 7.7 km/h 10.3 km/h 79 % 0 mm
02:00 -5.3 °C -7.3 °C 34428.8 hPa NE 7.7 km/h 10.3 km/h 80 % 0 mm
02:10 -5.2 °C -7.2 °C 34428.8 hPa NNE 2.6 km/h 7.7 km/h 80 % 0 mm
02:20 -5.2 °C -7.2 °C 34428.8 hPa Calm   7.7 km/h 80 % 0 mm
02:30 -5.2 °C -7.2 °C 34462.7 hPa Calm   2.6 km/h 80 % 0 mm
02:40 -5.1 °C -7.1 °C 34462.7 hPa NE 5.1 km/h 5.1 km/h 80 % 0 mm
02:50 -5 °C -7.1 °C 34462.7 hPa NE 2.6 km/h 7.7 km/h 79 % 0 mm
03:00 -4.9 °C -7.1 °C 34462.7 hPa NE 5.1 km/h 5.1 km/h 78 % 0 mm
03:10 -4.6 °C -6.9 °C 34462.7 hPa NE 2.6 km/h 5.1 km/h 78 % 0 mm
03:20 -4.5 °C -6.9 °C 34462.7 hPa NE 5.1 km/h 7.7 km/h 77 % 0 mm
03:30 -4.2 °C -6.7 °C 34462.7 hPa NE 5.1 km/h 7.7 km/h 76 % 0 mm
03:40 -4 °C -6.6 °C 34462.7 hPa NE 5.1 km/h 7.7 km/h 75 % 0 mm
03:50 -4.1 °C -6.8 °C 34462.7 hPa NE 7.7 km/h 10.3 km/h 74 % 0 mm
04:00 -3.8 °C -6.8 °C 34462.7 hPa NE 5.1 km/h 7.7 km/h 72 % 0 mm
04:10 -3.7 °C -6.9 °C 34462.7 hPa East 5.1 km/h 7.7 km/h 70 % 0 mm
04:20 -3.8 °C -7.1 °C 34462.7 hPa ESE 5.1 km/h 10.3 km/h 70 % 0 mm
04:30 -3.8 °C -7.1 °C 34462.7 hPa SE 2.6 km/h 5.1 km/h 70 % 0 mm
04:40 -3.7 °C -7 °C 34462.7 hPa South 5.1 km/h 5.1 km/h 70 % 0 mm
04:50 -3.5 °C -6.8 °C 34462.7 hPa ESE 2.6 km/h 5.1 km/h 70 % 0 mm
05:00 -3.5 °C -6.9 °C 34462.7 hPa ENE 2.6 km/h 5.1 km/h 69 % 0 mm
05:10 -3.4 °C -6.8 °C 34462.7 hPa NE 5.1 km/h 5.1 km/h 69 % 0 mm
05:20 -3.5 °C -6.9 °C 34462.7 hPa East 2.6 km/h 5.1 km/h 69 % 0 mm
05:30 -3.4 °C -6.9 °C 34462.7 hPa ESE 2.6 km/h 5.1 km/h 68 % 0 mm
05:40 -3.5 °C -7.2 °C 34462.7 hPa East 2.6 km/h 10.3 km/h 67 % 0 mm
05:50 -3.4 °C -7.3 °C 34462.7 hPa NE 5.1 km/h 7.7 km/h 66 % 0 mm
05:55 -3.3 °C -7 °C 34462.7 hPa ENE 2.6 km/h 5.1 km/h 67 % 0 mm
10:56 -3.3 °C -7.3 °C 34462.7 hPa ESE 9 km/h 9 km/h 65 % 0 mm
11:01 -3.3 °C -7.3 °C 34462.7 hPa ESE 17.9 km/h 17.9 km/h 65 % 0 mm
11:06 -3.3 °C -7.4 °C 34462.7 hPa ESE 9.3 km/h 9.3 km/h 64 % 0 mm
11:11 -3.3 °C -7.1 °C 34462.7 hPa SSW 17.9 km/h 17.9 km/h 66 % 0 mm
11:16 -3.2 °C -7.1 °C 34462.7 hPa South 9 km/h 9 km/h 66 % 0 mm
11:21 -3.1 °C -6.9 °C 34462.7 hPa SSW 9 km/h 9 km/h 66 % 0 mm
11:26 -3.1 °C -6.9 °C 34462.7 hPa WSW 9 km/h 9 km/h 66 % 0 mm
11:31 -3 °C -6.9 °C 34462.7 hPa SW 9.3 km/h 9.3 km/h 65 % 0 mm
11:36 -2.9 °C -6.8 °C 34462.7 hPa SW 3.1 km/h 3.7 km/h 65 % 0 mm
11:41 -2.8 °C -6.9 °C 34462.7 hPa SW 6 km/h   64 % 0 mm
11:42 -2.8 °C -6.9 °C 34462.7 hPa SW 3.1 km/h   64 % 0 mm
11:46 -2.8 °C -7.1 °C 34462.7 hPa ESE 9 km/h 9 km/h 63 % 0 mm
11:51 -2.8 °C -7.2 °C 34462.7 hPa SE 11.9 km/h 11.9 km/h 62 % 0 mm
11:56 -2.9 °C -7.3 °C 34462.7 hPa South 9 km/h 9 km/h 62 % 0 mm
12:02 -2.9 °C -7.4 °C 34462.7 hPa South 15 km/h 15 km/h 61 % 0 mm
12:07 -2.7 °C -7.3 °C 34462.7 hPa ESE 6 km/h 6 km/h 60 % 0 mm
12:12 -2.7 °C -7.3 °C 34462.7 hPa South 9 km/h 9 km/h 60 % 0 mm
12:17 -2.6 °C -7.3 °C 34462.7 hPa Calm   3.7 km/h 60 % 0 mm
12:22 -2.7 °C -7.5 °C 34462.7 hPa SSE 15 km/h 15 km/h 59 % 0 mm
12:27 -2.7 °C -7.5 °C 34462.7 hPa ESE 14 km/h 14 km/h 59 % 0 mm
12:32 -2.6 °C -7.4 °C 34462.7 hPa South 11.9 km/h 11.9 km/h 59 % 0 mm
12:37 -2.6 °C -7.4 °C 34462.7 hPa SSE 9 km/h 9 km/h 59 % 0 mm
12:42 -2.3 °C -7.1 °C 34462.7 hPa SSE 6 km/h 6.3 km/h 59 % 0 mm
12:47 -2.3 °C -7.1 °C 34462.7 hPa ENE 15 km/h 15 km/h 59 % 0 mm
12:52 -2.4 °C -7.3 °C 34462.7 hPa East 11.9 km/h 11.9 km/h 59 % 0 mm
12:57 -2.3 °C -7.3 °C 34462.7 hPa East 26.9 km/h 26.9 km/h 58 % 0 mm
13:02 -2.4 °C -7.4 °C 34462.7 hPa East 11.9 km/h 11.9 km/h 58 % 0 mm
13:07 -2.4 °C -7.6 °C 34462.7 hPa SE 15 km/h 15 km/h 57 % 0 mm
13:12 -2.6 °C -7.7 °C 34462.7 hPa ESE 12.2 km/h 14.5 km/h 57 % 0 mm
13:17 -2.5 °C -7.7 °C 34462.7 hPa East 20.9 km/h 20.9 km/h 57 % 0 mm
13:22 -2.4 °C -7.7 °C 34462.7 hPa ESE 20.9 km/h 20.9 km/h 56 % 0 mm
13:27 -2.7 °C -8.1 °C 34462.7 hPa ENE 23.8 km/h 23.8 km/h 55 % 0 mm
13:32 -2.6 °C -7.9 °C 34462.7 hPa NNE 11.9 km/h 12.7 km/h 56 % 0 mm
13:37 -2.8 °C -8.4 °C 34428.8 hPa East 26.9 km/h 26.9 km/h 54 % 0 mm
13:42 -2.6 °C -8.2 °C 34428.8 hPa South 15 km/h 15 km/h 54 % 0 mm
13:47 -2.7 °C -8.3 °C 34428.8 hPa SE 20.9 km/h 20.9 km/h 54 % 0 mm
13:52 -2.8 °C -8.4 °C 34428.8 hPa ESE 23.8 km/h 23.8 km/h 54 % 0 mm
13:57 -2.8 °C -8.4 °C 34428.8 hPa ESE 15 km/h 15 km/h 54 % 0 mm
14:02 -2.7 °C -8.3 °C 34428.8 hPa ESE 20.9 km/h 20.9 km/h 54 % 0 mm
14:07 -2.8 °C -8.6 °C 34395 hPa ESE 17.9 km/h 17.9 km/h 53 % 0 mm
14:12 -2.6 °C -8.2 °C 34395 hPa ENE 17.9 km/h 17.9 km/h 54 % 0 mm
14:17 -2.6 °C -8.4 °C 34395 hPa ENE 20.3 km/h 20.3 km/h 53 % 0 mm
14:22 -2.6 °C -8.3 °C 34361.1 hPa East 15 km/h 15 km/h 53 % 0 mm
14:27 -2.6 °C -8.3 °C 34361.1 hPa ESE 20.9 km/h 20.9 km/h 53 % 0 mm
14:32 -2.4 °C -8.2 °C 34361.1 hPa SE 11.9 km/h 11.9 km/h 53 % 0 mm
14:37 -2.2 °C -8.1 °C 34428.8 hPa ESE 15 km/h 15 km/h 53 % 0 mm
14:42 -2.3 °C -8.3 °C 34428.8 hPa ENE 15 km/h 15 km/h 52 % 0 mm
14:47 -2.3 °C -8.3 °C 34428.8 hPa ESE 15.6 km/h 15.6 km/h 52 % 0 mm
14:52 -2.3 °C -8.3 °C 34395 hPa South 17.9 km/h 17.9 km/h 52 % 0 mm
14:57 -2.3 °C -8.5 °C 34395 hPa ESE 27.2 km/h 27.2 km/h 51 % 0 mm
15:02 -1.9 °C -7.9 °C 34395 hPa SE 15 km/h 15 km/h 52 % 0 mm
15:07 -1.9 °C -8.2 °C 34395 hPa ENE 17.9 km/h 17.9 km/h 50 % 0 mm
15:12 -2 °C -8.3 °C 34395 hPa East 23.8 km/h 23.8 km/h 50 % 0 mm
15:17 -2.2 °C -8.6 °C 34395 hPa South 23.8 km/h 23.8 km/h 50 % 0 mm
15:22 -1.8 °C -8.2 °C 34395 hPa SE 29.8 km/h 29.8 km/h 50 % 0 mm
15:27 -2.1 °C -8.4 °C 34395 hPa ESE 20.9 km/h 20.9 km/h 50 % 0 mm
15:32 -2 °C -8.3 °C 34395 hPa SE 20.9 km/h 20.9 km/h 50 % 0 mm
15:37 -2.2 °C -8.5 °C 34361.1 hPa ENE 29.8 km/h 29.8 km/h 50 % 0 mm
15:42 -2.3 °C -8.6 °C 34361.1 hPa East 26.9 km/h 26.9 km/h 50 % 0 mm
15:47 -2.3 °C -8.5 °C 34361.1 hPa NE 23.8 km/h 23.8 km/h 51 % 0 mm
15:52 -2.1 °C -8.3 °C 34361.1 hPa South 15 km/h 15 km/h 51 % 0 mm
15:57 -2.1 °C -8.3 °C 34361.1 hPa SW 11.9 km/h 11.9 km/h 51 % 0 mm
16:02 -2.2 °C -8.4 °C 34361.1 hPa ESE 15 km/h 15 km/h 51 % 0 mm
16:07 -2.2 °C -8.3 °C 34361.1 hPa SSE 18.3 km/h 18.3 km/h 51 % 0 mm
16:12 -2.1 °C -8.3 °C 34361.1 hPa ESE 11.9 km/h 11.9 km/h 51 % 0 mm
16:17 -2.2 °C -8.4 °C 34361.1 hPa ESE 9 km/h 9 km/h 51 % 0 mm
16:22 -2 °C -8.2 °C 34395 hPa ESE 9 km/h 9 km/h 51 % 0 mm
16:27 -1.9 °C -8.1 °C 34395 hPa ESE 15 km/h 15 km/h 51 % 0 mm
16:32 -2.2 °C -8.3 °C 34395 hPa ESE 26.9 km/h 26.9 km/h 51 % 0 mm
16:37 -2.4 °C -8.6 °C 34361.1 hPa ESE 23.8 km/h 23.8 km/h 51 % 0 mm
16:42 -2.7 °C -8.6 °C 34361.1 hPa ESE 15.3 km/h 17.9 km/h 52 % 0 mm
16:47 -2.7 °C -8.7 °C 34361.1 hPa SSW 29.8 km/h 29.8 km/h 52 % 0 mm
16:52 -2.7 °C -8.5 °C 34361.1 hPa SE 20.3 km/h 20.3 km/h 53 % 0 mm
16:57 -2.9 °C -8.6 °C 34361.1 hPa South 19.2 km/h 22.5 km/h 54 % 0 mm
17:02 -2.8 °C -8.4 °C 34361.1 hPa SSE 15 km/h 15 km/h 54 % 0 mm
17:07 -2.9 °C -8.4 °C 34361.1 hPa SSE 11.9 km/h 12.2 km/h 55 % 0 mm
17:12 -2.9 °C -8.4 °C 34361.1 hPa ENE 15 km/h 15 km/h 55 % 0 mm
17:17 -3 °C -8.3 °C 34361.1 hPa ESE 22.5 km/h 22.5 km/h 56 % 0 mm
17:22 -3.2 °C -8.3 °C 34361.1 hPa ESE 16.6 km/h 16.6 km/h 57 % 0 mm
17:27 -3.2 °C -8.3 °C 34361.1 hPa NE 15 km/h 15 km/h 57 % 0 mm
17:32 -3 °C -8.1 °C 34361.1 hPa SE 9.8 km/h 10.3 km/h 57 % 0 mm
17:37 -2.6 °C -7.9 °C 34361.1 hPa SE 9 km/h 9 km/h 56 % 0 mm
17:42 -2.6 °C -8 °C 34361.1 hPa WSW 20.9 km/h 20.9 km/h 55 % 0 mm
17:47 -2.7 °C -8.3 °C 34361.1 hPa SW 20.9 km/h 20.9 km/h 54 % 0 mm
17:52 -2.6 °C -8.2 °C 34361.1 hPa SSE 20.9 km/h 20.9 km/h 54 % 0 mm
17:57 -2.7 °C -8.3 °C 34361.1 hPa West 15 km/h 15 km/h 54 % 0 mm
18:02 -2.7 °C -8.3 °C 34361.1 hPa WSW 15 km/h 15 km/h 54 % 0 mm
18:07 -2.7 °C -8.2 °C 34361.1 hPa SSW 12.7 km/h 12.7 km/h 55 % 0 mm
18:12 -2.8 °C -8.1 °C 34361.1 hPa SSW 15 km/h 15 km/h 56 % 0 mm
18:17 -2.9 °C -8.2 °C 34361.1 hPa South 23.8 km/h 23.8 km/h 56 % 0 mm
18:22 -3.1 °C -8.3 °C 34361.1 hPa South 17.9 km/h 17.9 km/h 56 % 0 mm
18:27 -3.1 °C -8.4 °C 34361.1 hPa SW 20.9 km/h 20.9 km/h 56 % 0 mm
18:32 -3.2 °C -8.5 °C 34361.1 hPa SW 20.9 km/h 20.9 km/h 56 % 0 mm
18:37 -3.4 °C -8.7 °C 34395 hPa SW 25.9 km/h 25.9 km/h 56 % 0 mm
18:42 -3.4 °C -8.6 °C 34395 hPa SSE 20.9 km/h 20.9 km/h 57 % 0 mm
18:47 -3.6 °C -8.6 °C 34395 hPa WSW 20.3 km/h 20.3 km/h 58 % 0 mm
18:52 -4.7 °C -8.4 °C 34395 hPa SSW 59.5 km/h 59.5 km/h 66 % 0 mm
18:57 -6 °C -9.2 °C 34395 hPa SSW 23.8 km/h 23.8 km/h 70 % 0 mm
19:02 -6.4 °C -9.1 °C 34395 hPa SW 45.4 km/h 45.4 km/h 74 % 33.02 mm
19:07 -7 °C -9.4 °C 34361.1 hPa West 23.8 km/h 23.8 km/h 76 % 33.02 mm
19:12 -7.2 °C -9.6 °C 34361.1 hPa SW 17.9 km/h 17.9 km/h 76 % 33.02 mm
19:17 -7.1 °C -9.4 °C 34361.1 hPa West 6 km/h 6 km/h 77 % 83.82 mm
19:22 -7.1 °C -9.1 °C 34395 hPa NNE 6 km/h 6 km/h 79 % 83.82 mm
19:27 -7.1 °C -9 °C 34395 hPa NE 9 km/h 9 km/h 80 % 83.82 mm
19:32 -6.9 °C -8.8 °C 34395 hPa WNW 3.7 km/h   81 % 109.22 mm
19:37 -7 °C -9 °C 34327.3 hPa WNW 3.7 km/h 3.7 km/h 80 % 109.22 mm
19:42 -7 °C -8.8 °C 34327.3 hPa NE 6 km/h 6 km/h 82 % 134.62 mm
19:47 -7 °C -8.7 °C 34327.3 hPa NNE 12.7 km/h 12.7 km/h 83 % 134.62 mm
19:52 -7.1 °C -8.7 °C 34327.3 hPa ENE 15 km/h 15 km/h 83 % 134.62 mm
19:57 -7.1 °C -8.6 °C 34327.3 hPa NE 15 km/h 15 km/h 84 % 134.62 mm
20:02 -7.2 °C -8.7 °C 34327.3 hPa NNE 20.9 km/h 20.9 km/h 84 % 104.14 mm
20:07 -7 °C -8.4 °C 34327.3 hPa ENE 11.9 km/h 11.9 km/h 85 % 104.14 mm
20:12 -7.1 °C -8.4 °C 34327.3 hPa WNW 11.9 km/h 11.9 km/h 86 % 104.14 mm
20:15 -7.4 °C -8.1 °C 34395 hPa Calm     92 % 0 mm
20:17 -7.1 °C -8.3 °C 34327.3 hPa North 15 km/h 15 km/h 87 % 50.8 mm
20:22 -7.1 °C -8.4 °C 34327.3 hPa SW 7.6 km/h 7.6 km/h 86 % 50.8 mm
20:25 -7.4 °C -8.1 °C 34395 hPa Calm     92 % 0 mm
20:27 -7 °C -8.2 °C 34327.3 hPa ENE 6 km/h 6 km/h 87 % 50.8 mm
20:32 -7 °C -8.2 °C 34327.3 hPa ENE 3.1 km/h   87 % 25.4 mm
20:35 -7.4 °C -8.2 °C 34395 hPa Calm     92 % 0 mm
20:37 -6.9 °C -8.2 °C 34293.4 hPa SW 6.8 km/h 6.8 km/h 87 % 25.4 mm
20:42 -7 °C -8.2 °C 34293.4 hPa SW 6 km/h   87 % 0 mm
20:45 -7.5 °C -8.2 °C 34395 hPa Calm     92 % 0 mm
20:47 -7 °C -8.3 °C 34293.4 hPa WSW 6 km/h 6 km/h 86 % 0 mm
20:52 -7 °C -8.3 °C 34327.3 hPa SW 7.6 km/h 7.6 km/h 86 % 0 mm
20:55 -7.6 °C -8.3 °C 34395 hPa Calm     92 % 0 mm
20:57 -7.1 °C -8.3 °C 34327.3 hPa SW 6 km/h 6 km/h 87 % 0 mm
21:02 -7.1 °C -8.3 °C 34327.3 hPa SW 6 km/h 6 km/h 87 % 0 mm
21:05 -7.6 °C -8.3 °C 34428.8 hPa Calm     92 % 0 mm
21:07 -7.2 °C -8.4 °C 34327.3 hPa SW 3.1 km/h 3.1 km/h 87 % 0 mm
21:12 -7.2 °C -8.5 °C 34327.3 hPa WSW 11.9 km/h 11.9 km/h 86 % 0 mm
21:15 -7.6 °C -8.2 °C 34428.8 hPa Calm     93 % 0 mm
21:17 -7.2 °C -8.4 °C 34327.3 hPa West 6 km/h 6 km/h 87 % 0 mm
21:22 -7.2 °C -8.4 °C 34327.3 hPa SW 9.3 km/h 9.3 km/h 87 % 0 mm
21:25 -7.6 °C -8.2 °C 34395 hPa Calm     93 % 0 mm
21:27 -7.2 °C -8.6 °C 34327.3 hPa SW 8 km/h 8 km/h 86 % 0 mm
21:28 -7.2 °C -8.6 °C 34327.3 hPa West 6 km/h 6.8 km/h 86 % 0 mm
21:33 -7.2 °C -8.4 °C 34327.3 hPa NNE 3.1 km/h   87 % 0 mm
21:35 -7.6 °C -8.2 °C 34395 hPa Calm     93 % 0 mm
21:38 -7.2 °C -8.3 °C 34327.3 hPa NNE 6 km/h 6 km/h 88 % 0 mm
21:43 -7.2 °C -8.3 °C 34327.3 hPa NNE 6 km/h 6 km/h 88 % 0 mm
21:45 -7.6 °C -8.2 °C 34395 hPa Calm     93 % 0 mm
21:48 -7.2 °C -8.2 °C 34327.3 hPa ENE 6 km/h 6 km/h 89 % 0 mm
21:53 -7.2 °C -8.2 °C 34361.1 hPa NE 6 km/h 6.3 km/h 89 % 0 mm
21:55 -7.7 °C -8.3 °C 34395 hPa Calm     93 % 0 mm
21:58 -7.2 °C -8.2 °C 34361.1 hPa NE 9 km/h 9 km/h 89 % 0 mm
22:03 -7.2 °C -8.2 °C 34361.1 hPa Calm     89 % 0 mm
22:05 -7.7 °C -8.4 °C 34395 hPa Calm     93 % 0 mm
22:08 -7.2 °C -8.2 °C 34395 hPa Calm     89 % 0 mm
22:13 -7.2 °C -8.2 °C 34395 hPa NE 4.2 km/h   89 % 0 mm
22:15 -7.8 °C -8.4 °C 34395 hPa Calm     93 % 0 mm
22:18 -7.1 °C -8.2 °C 34395 hPa ENE 6 km/h 6 km/h 89 % 0 mm
22:23 -7.1 °C -8.2 °C 34395 hPa NE 3.1 km/h   89 % 0 mm
22:25 -7.8 °C -8.4 °C 34361.1 hPa Calm     93 % 0 mm
22:28 -7.1 °C -8.2 °C 34395 hPa ENE 6 km/h 6 km/h 89 % 0 mm
22:33 -7.1 °C -8.1 °C 34395 hPa NE 6 km/h 6 km/h 90 % 0 mm
22:35 -7.8 °C -8.4 °C 34361.1 hPa Calm     93 % 0 mm
22:38 -7.2 °C -8.1 °C 34395 hPa Calm     90 % 0 mm
22:43 -7.2 °C -8.2 °C 34395 hPa SW 6 km/h 6 km/h 89 % 0 mm
22:45 -7.8 °C -8.4 °C 34361.1 hPa Calm     93 % 0 mm
22:48 -7.2 °C -8.2 °C 34395 hPa SW 6 km/h 6 km/h 89 % 0 mm
22:53 -7.2 °C -8.2 °C 34395 hPa WSW 6 km/h 6 km/h 89 % 0 mm
22:55 -7.8 °C -8.4 °C 34361.1 hPa Calm     93 % 0 mm
22:58 -7.2 °C -8.2 °C 34395 hPa Calm     89 % 0 mm
23:03 -7.2 °C -8.2 °C 34395 hPa Calm     90 % 0 mm
23:05 -7.9 °C -8.4 °C 34327.3 hPa Calm     94 % 0 mm
23:08 -7.2 °C -8.2 °C 34395 hPa WSW 4.2 km/h 4.2 km/h 90 % 0 mm
23:13 -7.2 °C -8.2 °C 34395 hPa SW 6 km/h 6 km/h 89 % 0 mm
23:15 -8 °C -8.7 °C 34327.3 hPa Calm     93 % 0 mm
23:18 -7.3 °C -8.2 °C 34395 hPa West 5.6 km/h   90 % 0 mm
23:23 -7.2 °C -8.2 °C 34395 hPa SW 6 km/h 6 km/h 89 % 0 mm
23:25 -8.1 °C -8.7 °C 34361.1 hPa Calm     93 % 0 mm
23:28 -7.2 °C -8.2 °C 34395 hPa Calm     90 % 0 mm
23:33 -7.3 °C -8.1 °C 34395 hPa Calm     91 % 0 mm
23:35 -8.1 °C -8.7 °C 34327.3 hPa SW 2.6 km/h 5.1 km/h 93 % 0 mm
23:38 -7.2 °C -8.2 °C 34395 hPa Calm     90 % 0 mm
23:43 -7.2 °C -8.2 °C 34395 hPa Calm     90 % 0 mm
23:45 -8.2 °C -8.8 °C 34327.3 hPa SW 2.6 km/h 5.1 km/h 93 % 0 mm
23:48 -7.2 °C -8.2 °C 34395 hPa Calm     90 % 0 mm
23:53 -7.3 °C -8.1 °C 34395 hPa Calm     91 % 0 mm
23:55 -8.2 °C -8.7 °C 34361.1 hPa Calm   2.6 km/h 94 % 0 mm
23:58 -7.2 °C -8.2 °C 34395 hPa Calm     90 % 0 mm
Meteo Sesrovires
Elogis d' Weather Underground - 3.75 mb

Guio original per  Jim McMurry - jmcmurry@mwt.net Adaptat per a la plantilla per  Wim van der Kuil - Leuven-Template.eu

Trobareu la nostra informacio del temps tambe a:

Weather Underground

AWEKAS